sensor_id;sensor_type;location;lat;lon;timestamp;temperature;humidity
62904;DHT22;49000;50.698;13.322;2023-12-07T00:01:37;0.30;99.90
62904;DHT22;49000;50.698;13.322;2023-12-07T00:04:03;0.30;99.90
62904;DHT22;49000;50.698;13.322;2023-12-07T00:06:29;0.20;99.90
62904;DHT22;49000;50.698;13.322;2023-12-07T00:08:54;0.40;99.90
62904;DHT22;49000;50.698;13.322;2023-12-07T00:11:22;0.50;99.90
62904;DHT22;49000;50.698;13.322;2023-12-07T00:13:48;-0.10;99.90
62904;DHT22;49000;50.698;13.322;2023-12-07T00:16:14;0.60;99.90
62904;DHT22;49000;50.698;13.322;2023-12-07T00:18:39;0.50;99.90
62904;DHT22;49000;50.698;13.322;2023-12-07T00:21:05;0.40;99.90
62904;DHT22;49000;50.698;13.322;2023-12-07T00:23:30;0.50;99.90
62904;DHT22;49000;50.698;13.322;2023-12-07T00:25:56;0.20;99.90
62904;DHT22;49000;50.698;13.322;2023-12-07T00:28:21;0.60;99.90
62904;DHT22;49000;50.698;13.322;2023-12-07T00:30:47;0.30;99.90
62904;DHT22;49000;50.698;13.322;2023-12-07T00:33:12;0.60;99.90
62904;DHT22;49000;50.698;13.322;2023-12-07T00:35:38;0.20;99.90
62904;DHT22;49000;50.698;13.322;2023-12-07T00:38:03;0.00;99.90
62904;DHT22;49000;50.698;13.322;2023-12-07T00:40:29;0.50;99.90
62904;DHT22;49000;50.698;13.322;2023-12-07T00:42:54;0.60;99.90
62904;DHT22;49000;50.698;13.322;2023-12-07T00:45:19;0.60;99.90
62904;DHT22;49000;50.698;13.322;2023-12-07T00:47:45;0.60;99.90
62904;DHT22;49000;50.698;13.322;2023-12-07T00:50:13;0.50;99.90
62904;DHT22;49000;50.698;13.322;2023-12-07T00:52:39;0.60;99.90
62904;DHT22;49000;50.698;13.322;2023-12-07T00:55:05;0.40;99.90
62904;DHT22;49000;50.698;13.322;2023-12-07T00:57:32;0.70;99.90
62904;DHT22;49000;50.698;13.322;2023-12-07T00:59:57;0.60;99.90
62904;DHT22;49000;50.698;13.322;2023-12-07T01:02:23;0.60;99.90
62904;DHT22;49000;50.698;13.322;2023-12-07T01:04:48;0.60;99.90
62904;DHT22;49000;50.698;13.322;2023-12-07T01:07:14;0.70;99.90
62904;DHT22;49000;50.698;13.322;2023-12-07T01:09:39;0.50;99.90
62904;DHT22;49000;50.698;13.322;2023-12-07T01:12:05;0.70;99.90
62904;DHT22;49000;50.698;13.322;2023-12-07T01:14:30;0.50;99.90
62904;DHT22;49000;50.698;13.322;2023-12-07T01:16:56;0.50;99.90
62904;DHT22;49000;50.698;13.322;2023-12-07T01:19:21;0.50;99.90
62904;DHT22;49000;50.698;13.322;2023-12-07T01:21:47;0.80;99.90
62904;DHT22;49000;50.698;13.322;2023-12-07T01:24:12;0.40;99.90
62904;DHT22;49000;50.698;13.322;2023-12-07T01:26:38;0.50;99.90
62904;DHT22;49000;50.698;13.322;2023-12-07T01:29:03;0.40;99.90
62904;DHT22;49000;50.698;13.322;2023-12-07T01:31:29;0.10;99.90
62904;DHT22;49000;50.698;13.322;2023-12-07T01:33:55;0.50;99.90
62904;DHT22;49000;50.698;13.322;2023-12-07T01:36:21;0.40;99.90
62904;DHT22;49000;50.698;13.322;2023-12-07T01:38:46;0.50;99.90
62904;DHT22;49000;50.698;13.322;2023-12-07T01:41:12;0.60;99.90
62904;DHT22;49000;50.698;13.322;2023-12-07T01:43:37;0.70;99.90
62904;DHT22;49000;50.698;13.322;2023-12-07T01:46:09;0.40;99.90
62904;DHT22;49000;50.698;13.322;2023-12-07T01:48:34;0.10;99.90
62904;DHT22;49000;50.698;13.322;2023-12-07T01:51:00;0.50;99.90
62904;DHT22;49000;50.698;13.322;2023-12-07T01:53:26;0.50;99.90
62904;DHT22;49000;50.698;13.322;2023-12-07T01:55:52;0.00;99.90
62904;DHT22;49000;50.698;13.322;2023-12-07T01:58:18;0.10;99.90
62904;DHT22;49000;50.698;13.322;2023-12-07T02:00:45;0.40;99.90
62904;DHT22;49000;50.698;13.322;2023-12-07T02:03:11;0.70;99.90
62904;DHT22;49000;50.698;13.322;2023-12-07T02:05:37;0.50;99.90
62904;DHT22;49000;50.698;13.322;2023-12-07T02:08:06;0.70;99.90
62904;DHT22;49000;50.698;13.322;2023-12-07T02:10:31;0.60;99.90
62904;DHT22;49000;50.698;13.322;2023-12-07T02:12:57;0.50;99.90
62904;DHT22;49000;50.698;13.322;2023-12-07T02:15:22;0.50;99.90
62904;DHT22;49000;50.698;13.322;2023-12-07T02:21:00;0.50;99.90
62904;DHT22;49000;50.698;13.322;2023-12-07T02:23:28;0.80;99.90
62904;DHT22;49000;50.698;13.322;2023-12-07T02:25:55;0.50;99.90
62904;DHT22;49000;50.698;13.322;2023-12-07T02:28:24;0.50;99.90
62904;DHT22;49000;50.698;13.322;2023-12-07T02:30:50;0.50;99.90
62904;DHT22;49000;50.698;13.322;2023-12-07T02:33:15;0.60;99.90
62904;DHT22;49000;50.698;13.322;2023-12-07T02:35:41;0.70;99.90
62904;DHT22;49000;50.698;13.322;2023-12-07T02:38:07;0.40;99.90
62904;DHT22;49000;50.698;13.322;2023-12-07T02:40:33;0.60;99.90
62904;DHT22;49000;50.698;13.322;2023-12-07T02:43:00;0.40;99.90
62904;DHT22;49000;50.698;13.322;2023-12-07T02:45:27;0.70;99.90
62904;DHT22;49000;50.698;13.322;2023-12-07T02:47:53;0.60;99.90
62904;DHT22;49000;50.698;13.322;2023-12-07T02:50:18;0.40;99.90
62904;DHT22;49000;50.698;13.322;2023-12-07T02:52:44;0.20;99.90
62904;DHT22;49000;50.698;13.322;2023-12-07T02:55:10;0.50;99.90
62904;DHT22;49000;50.698;13.322;2023-12-07T02:57:35;0.70;99.90
62904;DHT22;49000;50.698;13.322;2023-12-07T03:00:02;0.80;99.90
62904;DHT22;49000;50.698;13.322;2023-12-07T03:02:40;0.40;99.90
62904;DHT22;49000;50.698;13.322;2023-12-07T03:05:07;0.00;99.90
62904;DHT22;49000;50.698;13.322;2023-12-07T03:07:33;0.50;99.90
62904;DHT22;49000;50.698;13.322;2023-12-07T03:09:59;0.70;99.90
62904;DHT22;49000;50.698;13.322;2023-12-07T03:12:24;0.60;99.90
62904;DHT22;49000;50.698;13.322;2023-12-07T03:14:50;0.80;99.90
62904;DHT22;49000;50.698;13.322;2023-12-07T03:17:15;0.10;99.90
62904;DHT22;49000;50.698;13.322;2023-12-07T03:19:41;0.70;99.90
62904;DHT22;49000;50.698;13.322;2023-12-07T03:22:07;0.30;99.90
62904;DHT22;49000;50.698;13.322;2023-12-07T03:24:37;0.50;99.90
62904;DHT22;49000;50.698;13.322;2023-12-07T03:27:03;0.50;99.90
62904;DHT22;49000;50.698;13.322;2023-12-07T03:29:29;0.50;99.90
62904;DHT22;49000;50.698;13.322;2023-12-07T03:31:54;0.60;99.90
62904;DHT22;49000;50.698;13.322;2023-12-07T03:34:20;0.40;99.90
62904;DHT22;49000;50.698;13.322;2023-12-07T03:36:46;0.50;99.90
62904;DHT22;49000;50.698;13.322;2023-12-07T03:39:13;0.80;99.90
62904;DHT22;49000;50.698;13.322;2023-12-07T03:41:38;0.00;99.90
62904;DHT22;49000;50.698;13.322;2023-12-07T03:44:04;0.50;99.90
62904;DHT22;49000;50.698;13.322;2023-12-07T03:46:30;0.60;99.90
62904;DHT22;49000;50.698;13.322;2023-12-07T03:48:55;0.60;99.90
62904;DHT22;49000;50.698;13.322;2023-12-07T03:51:20;0.40;99.90
62904;DHT22;49000;50.698;13.322;2023-12-07T03:53:46;0.50;99.90
62904;DHT22;49000;50.698;13.322;2023-12-07T03:56:25;0.40;99.90
62904;DHT22;49000;50.698;13.322;2023-12-07T03:58:51;0.60;99.90
62904;DHT22;49000;50.698;13.322;2023-12-07T04:01:16;0.50;99.90
62904;DHT22;49000;50.698;13.322;2023-12-07T04:03:42;0.30;99.90
62904;DHT22;49000;50.698;13.322;2023-12-07T04:06:07;0.50;99.90
62904;DHT22;49000;50.698;13.322;2023-12-07T04:08:33;0.70;99.90
62904;DHT22;49000;50.698;13.322;2023-12-07T04:10:58;0.40;99.90
62904;DHT22;49000;50.698;13.322;2023-12-07T04:13:24;0.50;99.90
62904;DHT22;49000;50.698;13.322;2023-12-07T04:15:49;0.50;99.90
62904;DHT22;49000;50.698;13.322;2023-12-07T04:18:15;0.50;99.90
62904;DHT22;49000;50.698;13.322;2023-12-07T04:20:41;0.00;99.90
62904;DHT22;49000;50.698;13.322;2023-12-07T04:23:06;0.20;99.90
62904;DHT22;49000;50.698;13.322;2023-12-07T04:25:32;0.60;99.90
62904;DHT22;49000;50.698;13.322;2023-12-07T04:27:58;0.40;99.90
62904;DHT22;49000;50.698;13.322;2023-12-07T04:30:24;0.40;99.90
62904;DHT22;49000;50.698;13.322;2023-12-07T04:32:49;0.50;99.90
62904;DHT22;49000;50.698;13.322;2023-12-07T04:35:14;0.40;99.90
62904;DHT22;49000;50.698;13.322;2023-12-07T04:37:40;0.60;99.90
62904;DHT22;49000;50.698;13.322;2023-12-07T04:40:06;0.60;99.90
62904;DHT22;49000;50.698;13.322;2023-12-07T04:42:31;0.40;99.90
62904;DHT22;49000;50.698;13.322;2023-12-07T04:44:57;0.50;99.90
62904;DHT22;49000;50.698;13.322;2023-12-07T04:47:23;0.50;99.90
62904;DHT22;49000;50.698;13.322;2023-12-07T04:49:49;0.80;99.90
62904;DHT22;49000;50.698;13.322;2023-12-07T04:52:14;0.40;99.90
62904;DHT22;49000;50.698;13.322;2023-12-07T04:54:40;0.50;99.90
62904;DHT22;49000;50.698;13.322;2023-12-07T04:57:05;0.50;99.90
62904;DHT22;49000;50.698;13.322;2023-12-07T04:59:31;0.00;99.90
62904;DHT22;49000;50.698;13.322;2023-12-07T05:01:56;0.50;99.90
62904;DHT22;49000;50.698;13.322;2023-12-07T05:04:21;0.20;99.90
62904;DHT22;49000;50.698;13.322;2023-12-07T05:06:47;0.70;99.90
62904;DHT22;49000;50.698;13.322;2023-12-07T05:09:12;0.60;99.90
62904;DHT22;49000;50.698;13.322;2023-12-07T05:11:38;0.50;99.90
62904;DHT22;49000;50.698;13.322;2023-12-07T05:14:05;0.50;99.90
62904;DHT22;49000;50.698;13.322;2023-12-07T05:16:30;0.40;99.90
62904;DHT22;49000;50.698;13.322;2023-12-07T05:18:56;0.60;99.90
62904;DHT22;49000;50.698;13.322;2023-12-07T05:21:21;0.40;99.90
62904;DHT22;49000;50.698;13.322;2023-12-07T05:23:47;0.10;99.90
62904;DHT22;49000;50.698;13.322;2023-12-07T05:26:12;0.70;99.90
62904;DHT22;49000;50.698;13.322;2023-12-07T05:28:38;0.70;99.90
62904;DHT22;49000;50.698;13.322;2023-12-07T05:31:03;0.60;99.90
62904;DHT22;49000;50.698;13.322;2023-12-07T05:33:29;0.50;99.90
62904;DHT22;49000;50.698;13.322;2023-12-07T05:35:54;0.80;99.90
62904;DHT22;49000;50.698;13.322;2023-12-07T05:38:20;0.70;99.90
62904;DHT22;49000;50.698;13.322;2023-12-07T05:40:45;0.50;99.90
62904;DHT22;49000;50.698;13.322;2023-12-07T05:43:11;0.60;99.90
62904;DHT22;49000;50.698;13.322;2023-12-07T05:45:36;0.70;99.90
62904;DHT22;49000;50.698;13.322;2023-12-07T05:48:02;0.70;99.90
62904;DHT22;49000;50.698;13.322;2023-12-07T05:50:27;0.50;99.90
62904;DHT22;49000;50.698;13.322;2023-12-07T05:52:53;0.50;99.90
62904;DHT22;49000;50.698;13.322;2023-12-07T05:55:18;0.10;99.90
62904;DHT22;49000;50.698;13.322;2023-12-07T05:57:45;0.60;99.90
62904;DHT22;49000;50.698;13.322;2023-12-07T06:00:12;0.50;99.90
62904;DHT22;49000;50.698;13.322;2023-12-07T06:02:37;0.60;99.90
62904;DHT22;49000;50.698;13.322;2023-12-07T06:05:03;0.40;99.90
62904;DHT22;49000;50.698;13.322;2023-12-07T06:07:32;0.40;99.90
62904;DHT22;49000;50.698;13.322;2023-12-07T06:09:57;0.60;99.90
62904;DHT22;49000;50.698;13.322;2023-12-07T06:12:22;0.70;99.90
62904;DHT22;49000;50.698;13.322;2023-12-07T06:14:49;0.20;99.90
62904;DHT22;49000;50.698;13.322;2023-12-07T06:17:14;0.60;99.90
62904;DHT22;49000;50.698;13.322;2023-12-07T06:19:40;0.00;99.90
62904;DHT22;49000;50.698;13.322;2023-12-07T06:22:06;0.30;99.90
62904;DHT22;49000;50.698;13.322;2023-12-07T06:24:31;0.50;99.90
62904;DHT22;49000;50.698;13.322;2023-12-07T06:26:58;0.10;99.90
62904;DHT22;49000;50.698;13.322;2023-12-07T06:29:23;0.60;99.90
62904;DHT22;49000;50.698;13.322;2023-12-07T06:31:49;0.50;99.90
62904;DHT22;49000;50.698;13.322;2023-12-07T06:34:14;0.40;99.90
62904;DHT22;49000;50.698;13.322;2023-12-07T06:36:40;0.40;99.90
62904;DHT22;49000;50.698;13.322;2023-12-07T06:39:05;0.30;99.90
62904;DHT22;49000;50.698;13.322;2023-12-07T06:41:31;0.30;99.90
62904;DHT22;49000;50.698;13.322;2023-12-07T06:43:56;0.40;99.90
62904;DHT22;49000;50.698;13.322;2023-12-07T06:46:22;0.40;99.90
62904;DHT22;49000;50.698;13.322;2023-12-07T06:48:47;0.70;99.90
62904;DHT22;49000;50.698;13.322;2023-12-07T06:51:13;0.40;99.90
62904;DHT22;49000;50.698;13.322;2023-12-07T06:53:40;0.00;99.90
62904;DHT22;49000;50.698;13.322;2023-12-07T06:56:06;0.60;99.90
62904;DHT22;49000;50.698;13.322;2023-12-07T06:58:32;0.50;99.90
62904;DHT22;49000;50.698;13.322;2023-12-07T07:00:57;0.60;99.90
62904;DHT22;49000;50.698;13.322;2023-12-07T07:03:23;0.40;99.90
62904;DHT22;49000;50.698;13.322;2023-12-07T07:05:49;0.20;99.90
62904;DHT22;49000;50.698;13.322;2023-12-07T07:08:15;0.60;99.90
62904;DHT22;49000;50.698;13.322;2023-12-07T07:10:40;0.30;99.90
62904;DHT22;49000;50.698;13.322;2023-12-07T07:13:06;0.50;99.90
62904;DHT22;49000;50.698;13.322;2023-12-07T07:15:34;0.70;99.90
62904;DHT22;49000;50.698;13.322;2023-12-07T07:18:01;0.50;99.90
62904;DHT22;49000;50.698;13.322;2023-12-07T07:20:26;0.60;99.90
62904;DHT22;49000;50.698;13.322;2023-12-07T07:22:52;0.50;99.90
62904;DHT22;49000;50.698;13.322;2023-12-07T07:25:17;0.20;99.90
62904;DHT22;49000;50.698;13.322;2023-12-07T07:27:45;0.80;99.90
62904;DHT22;49000;50.698;13.322;2023-12-07T07:30:11;0.70;99.90
62904;DHT22;49000;50.698;13.322;2023-12-07T07:32:37;0.70;99.90
62904;DHT22;49000;50.698;13.322;2023-12-07T07:35:03;0.70;99.90
62904;DHT22;49000;50.698;13.322;2023-12-07T07:37:28;0.80;99.90
62904;DHT22;49000;50.698;13.322;2023-12-07T07:39:54;0.60;99.90
62904;DHT22;49000;50.698;13.322;2023-12-07T07:42:19;0.60;99.90
62904;DHT22;49000;50.698;13.322;2023-12-07T07:44:45;0.70;99.90
62904;DHT22;49000;50.698;13.322;2023-12-07T07:47:10;0.60;99.90
62904;DHT22;49000;50.698;13.322;2023-12-07T07:49:36;0.60;99.90
62904;DHT22;49000;50.698;13.322;2023-12-07T07:52:01;0.70;99.90
62904;DHT22;49000;50.698;13.322;2023-12-07T07:54:26;0.60;99.90
62904;DHT22;49000;50.698;13.322;2023-12-07T07:56:52;0.80;99.90
62904;DHT22;49000;50.698;13.322;2023-12-07T07:59:17;0.90;99.90
62904;DHT22;49000;50.698;13.322;2023-12-07T08:01:43;0.60;99.90
62904;DHT22;49000;50.698;13.322;2023-12-07T08:04:12;0.80;99.90
62904;DHT22;49000;50.698;13.322;2023-12-07T08:06:37;0.70;99.90
62904;DHT22;49000;50.698;13.322;2023-12-07T08:09:03;0.20;99.90
62904;DHT22;49000;50.698;13.322;2023-12-07T08:11:28;0.70;99.90
62904;DHT22;49000;50.698;13.322;2023-12-07T08:13:54;0.90;99.90
62904;DHT22;49000;50.698;13.322;2023-12-07T08:16:20;0.60;99.90
62904;DHT22;49000;50.698;13.322;2023-12-07T08:18:45;0.50;99.90
62904;DHT22;49000;50.698;13.322;2023-12-07T08:21:23;0.50;99.90
62904;DHT22;49000;50.698;13.322;2023-12-07T08:23:49;1.20;99.90
62904;DHT22;49000;50.698;13.322;2023-12-07T08:26:15;1.10;99.90
62904;DHT22;49000;50.698;13.322;2023-12-07T08:28:41;1.30;99.90
62904;DHT22;49000;50.698;13.322;2023-12-07T08:31:07;1.10;99.90
62904;DHT22;49000;50.698;13.322;2023-12-07T08:33:33;1.10;99.90
62904;DHT22;49000;50.698;13.322;2023-12-07T08:36:00;1.10;99.90
62904;DHT22;49000;50.698;13.322;2023-12-07T08:38:25;1.50;99.90
62904;DHT22;49000;50.698;13.322;2023-12-07T08:40:51;1.30;99.90
62904;DHT22;49000;50.698;13.322;2023-12-07T08:43:19;1.40;99.90
62904;DHT22;49000;50.698;13.322;2023-12-07T08:45:44;0.90;99.90
62904;DHT22;49000;50.698;13.322;2023-12-07T08:48:10;1.30;94.40
62904;DHT22;49000;50.698;13.322;2023-12-07T08:50:35;1.40;80.20
62904;DHT22;49000;50.698;13.322;2023-12-07T08:53:01;0.90;84.00
62904;DHT22;49000;50.698;13.322;2023-12-07T08:55:26;1.00;74.40
62904;DHT22;49000;50.698;13.322;2023-12-07T08:57:54;1.40;71.30
62904;DHT22;49000;50.698;13.322;2023-12-07T09:00:19;1.70;59.80
62904;DHT22;49000;50.698;13.322;2023-12-07T09:02:49;1.50;40.20
62904;DHT22;49000;50.698;13.322;2023-12-07T09:05:15;1.30;28.60
62904;DHT22;49000;50.698;13.322;2023-12-07T09:07:41;1.30;26.20
62904;DHT22;49000;50.698;13.322;2023-12-07T09:10:07;1.40;34.30
62904;DHT22;49000;50.698;13.322;2023-12-07T09:12:33;1.40;26.40
62904;DHT22;49000;50.698;13.322;2023-12-07T09:15:01;1.50;23.20
62904;DHT22;49000;50.698;13.322;2023-12-07T09:17:27;1.60;22.50
62904;DHT22;49000;50.698;13.322;2023-12-07T09:19:53;1.50;21.80
62904;DHT22;49000;50.698;13.322;2023-12-07T09:22:19;1.60;28.40
62904;DHT22;49000;50.698;13.322;2023-12-07T09:24:45;1.40;20.40
62904;DHT22;49000;50.698;13.322;2023-12-07T09:27:12;1.60;16.80
62904;DHT22;49000;50.698;13.322;2023-12-07T09:29:38;1.70;1.00
62904;DHT22;49000;50.698;13.322;2023-12-07T09:32:04;1.60;1.00
62904;DHT22;49000;50.698;13.322;2023-12-07T09:34:30;1.60;1.00
62904;DHT22;49000;50.698;13.322;2023-12-07T09:37:08;1.50;1.20
62904;DHT22;49000;50.698;13.322;2023-12-07T09:39:34;1.70;1.40
62904;DHT22;49000;50.698;13.322;2023-12-07T09:42:00;1.60;1.00
62904;DHT22;49000;50.698;13.322;2023-12-07T09:44:26;1.50;1.00
62904;DHT22;49000;50.698;13.322;2023-12-07T09:46:52;1.30;1.00
62904;DHT22;49000;50.698;13.322;2023-12-07T09:49:18;1.70;1.00
62904;DHT22;49000;50.698;13.322;2023-12-07T09:51:44;1.90;1.00
62904;DHT22;49000;50.698;13.322;2023-12-07T09:54:11;2.00;1.00
62904;DHT22;49000;50.698;13.322;2023-12-07T09:56:37;1.70;1.00
62904;DHT22;49000;50.698;13.322;2023-12-07T09:59:03;1.90;1.00
62904;DHT22;49000;50.698;13.322;2023-12-07T10:01:29;1.50;1.00
62904;DHT22;49000;50.698;13.322;2023-12-07T10:04:20;1.90;1.00
62904;DHT22;49000;50.698;13.322;2023-12-07T10:06:46;1.80;1.00
62904;DHT22;49000;50.698;13.322;2023-12-07T10:09:13;1.70;1.00
62904;DHT22;49000;50.698;13.322;2023-12-07T10:11:39;1.90;1.00
62904;DHT22;49000;50.698;13.322;2023-12-07T10:14:07;1.20;1.00
62904;DHT22;49000;50.698;13.322;2023-12-07T10:16:33;1.90;1.00
62904;DHT22;49000;50.698;13.322;2023-12-07T10:19:16;1.70;1.00
62904;DHT22;49000;50.698;13.322;2023-12-07T10:21:51;1.90;1.00
62904;DHT22;49000;50.698;13.322;2023-12-07T10:24:17;1.80;1.00
62904;DHT22;49000;50.698;13.322;2023-12-07T10:26:44;2.10;1.00
62904;DHT22;49000;50.698;13.322;2023-12-07T10:29:11;1.60;1.00
62904;DHT22;49000;50.698;13.322;2023-12-07T10:31:37;1.70;1.00
62904;DHT22;49000;50.698;13.322;2023-12-07T10:34:03;2.00;1.00
62904;DHT22;49000;50.698;13.322;2023-12-07T10:36:30;2.10;1.00
62904;DHT22;49000;50.698;13.322;2023-12-07T10:38:55;1.80;1.00
62904;DHT22;49000;50.698;13.322;2023-12-07T10:41:22;1.90;1.00
62904;DHT22;49000;50.698;13.322;2023-12-07T10:43:53;2.30;1.00
62904;DHT22;49000;50.698;13.322;2023-12-07T10:46:20;2.10;1.00
62904;DHT22;49000;50.698;13.322;2023-12-07T10:48:48;1.60;1.00
62904;DHT22;49000;50.698;13.322;2023-12-07T10:51:23;2.00;1.00
62904;DHT22;49000;50.698;13.322;2023-12-07T10:53:51;2.10;1.00
62904;DHT22;49000;50.698;13.322;2023-12-07T10:56:25;2.30;1.00
62904;DHT22;49000;50.698;13.322;2023-12-07T10:58:54;1.70;1.00
62904;DHT22;49000;50.698;13.322;2023-12-07T11:01:21;2.10;1.00
62904;DHT22;49000;50.698;13.322;2023-12-07T11:03:49;2.20;99.90
62904;DHT22;49000;50.698;13.322;2023-12-07T11:06:16;2.10;99.90
62904;DHT22;49000;50.698;13.322;2023-12-07T11:08:47;1.80;99.90
62904;DHT22;49000;50.698;13.322;2023-12-07T11:11:24;2.10;99.90
62904;DHT22;49000;50.698;13.322;2023-12-07T11:13:56;2.10;1.00
62904;DHT22;49000;50.698;13.322;2023-12-07T11:16:29;1.40;99.90
62904;DHT22;49000;50.698;13.322;2023-12-07T11:18:55;1.80;1.00
62904;DHT22;49000;50.698;13.322;2023-12-07T11:21:20;1.80;1.00
62904;DHT22;49000;50.698;13.322;2023-12-07T11:23:46;1.70;1.00
62904;DHT22;49000;50.698;13.322;2023-12-07T11:26:12;1.70;1.00
62904;DHT22;49000;50.698;13.322;2023-12-07T11:28:39;1.80;1.00
62904;DHT22;49000;50.698;13.322;2023-12-07T11:31:08;2.00;1.00
62904;DHT22;49000;50.698;13.322;2023-12-07T11:33:34;1.90;1.00
62904;DHT22;49000;50.698;13.322;2023-12-07T11:38:27;1.70;1.00
62904;DHT22;49000;50.698;13.322;2023-12-07T11:40:54;1.50;1.00
62904;DHT22;49000;50.698;13.322;2023-12-07T11:46:04;1.70;1.00
62904;DHT22;49000;50.698;13.322;2023-12-07T11:48:29;1.40;1.00
62904;DHT22;49000;50.698;13.322;2023-12-07T11:50:59;1.70;1.00
62904;DHT22;49000;50.698;13.322;2023-12-07T11:53:30;1.60;1.00
62904;DHT22;49000;50.698;13.322;2023-12-07T11:55:57;1.90;1.00
62904;DHT22;49000;50.698;13.322;2023-12-07T11:58:24;1.80;1.00
62904;DHT22;49000;50.698;13.322;2023-12-07T12:00:51;1.40;1.00
62904;DHT22;49000;50.698;13.322;2023-12-07T12:03:17;1.50;1.00
62904;DHT22;49000;50.698;13.322;2023-12-07T12:05:42;1.90;1.00
62904;DHT22;49000;50.698;13.322;2023-12-07T12:08:09;1.70;1.00
62904;DHT22;49000;50.698;13.322;2023-12-07T12:10:36;1.90;1.00
62904;DHT22;49000;50.698;13.322;2023-12-07T12:13:02;1.40;1.00
62904;DHT22;49000;50.698;13.322;2023-12-07T12:15:28;1.90;1.00
62904;DHT22;49000;50.698;13.322;2023-12-07T12:17:56;2.10;1.00
62904;DHT22;49000;50.698;13.322;2023-12-07T12:20:21;2.10;1.00
62904;DHT22;49000;50.698;13.322;2023-12-07T12:22:47;1.60;1.00
62904;DHT22;49000;50.698;13.322;2023-12-07T12:25:13;2.00;1.00
62904;DHT22;49000;50.698;13.322;2023-12-07T12:27:39;1.60;99.90
62904;DHT22;49000;50.698;13.322;2023-12-07T12:30:06;2.10;99.90
62904;DHT22;49000;50.698;13.322;2023-12-07T12:32:47;2.10;99.90
62904;DHT22;49000;50.698;13.322;2023-12-07T12:35:13;2.30;99.90
62904;DHT22;49000;50.698;13.322;2023-12-07T12:37:43;1.90;99.90
62904;DHT22;49000;50.698;13.322;2023-12-07T12:40:10;2.20;99.90
62904;DHT22;49000;50.698;13.322;2023-12-07T12:42:37;2.20;99.90
62904;DHT22;49000;50.698;13.322;2023-12-07T12:45:08;2.30;99.90
62904;DHT22;49000;50.698;13.322;2023-12-07T12:47:34;2.40;99.90
62904;DHT22;49000;50.698;13.322;2023-12-07T12:50:01;2.30;99.90
62904;DHT22;49000;50.698;13.322;2023-12-07T12:52:29;2.40;99.90
62904;DHT22;49000;50.698;13.322;2023-12-07T12:54:55;2.40;99.90
62904;DHT22;49000;50.698;13.322;2023-12-07T12:57:22;2.20;99.90
62904;DHT22;49000;50.698;13.322;2023-12-07T12:59:48;2.50;99.90
62904;DHT22;49000;50.698;13.322;2023-12-07T13:02:14;2.20;99.90
62904;DHT22;49000;50.698;13.322;2023-12-07T13:04:39;2.20;99.90
62904;DHT22;49000;50.698;13.322;2023-12-07T13:07:08;2.10;99.90
62904;DHT22;49000;50.698;13.322;2023-12-07T13:09:34;2.30;99.90
62904;DHT22;49000;50.698;13.322;2023-12-07T13:11:59;2.30;99.90
62904;DHT22;49000;50.698;13.322;2023-12-07T13:14:25;2.30;99.90
62904;DHT22;49000;50.698;13.322;2023-12-07T13:16:50;1.90;99.90
62904;DHT22;49000;50.698;13.322;2023-12-07T13:19:17;2.20;99.90
62904;DHT22;49000;50.698;13.322;2023-12-07T13:21:45;2.20;99.90
62904;DHT22;49000;50.698;13.322;2023-12-07T13:24:10;2.40;99.90
62904;DHT22;49000;50.698;13.322;2023-12-07T13:26:40;2.20;99.90
62904;DHT22;49000;50.698;13.322;2023-12-07T13:29:06;2.30;99.90
62904;DHT22;49000;50.698;13.322;2023-12-07T13:31:33;2.50;99.90
62904;DHT22;49000;50.698;13.322;2023-12-07T13:33:59;2.40;99.90
62904;DHT22;49000;50.698;13.322;2023-12-07T13:36:24;2.20;99.90
62904;DHT22;49000;50.698;13.322;2023-12-07T13:38:52;1.80;99.90
62904;DHT22;49000;50.698;13.322;2023-12-07T13:41:18;2.00;99.90
62904;DHT22;49000;50.698;13.322;2023-12-07T13:43:43;1.90;99.90
62904;DHT22;49000;50.698;13.322;2023-12-07T13:46:08;2.30;99.90
62904;DHT22;49000;50.698;13.322;2023-12-07T13:48:35;2.10;99.90
62904;DHT22;49000;50.698;13.322;2023-12-07T13:51:01;2.10;99.90
62904;DHT22;49000;50.698;13.322;2023-12-07T13:53:27;2.30;99.90
62904;DHT22;49000;50.698;13.322;2023-12-07T13:55:53;2.40;99.90
62904;DHT22;49000;50.698;13.322;2023-12-07T13:58:18;2.40;99.90
62904;DHT22;49000;50.698;13.322;2023-12-07T14:00:44;2.30;99.90
62904;DHT22;49000;50.698;13.322;2023-12-07T14:03:11;2.10;99.90
62904;DHT22;49000;50.698;13.322;2023-12-07T14:05:38;2.00;99.90
62904;DHT22;49000;50.698;13.322;2023-12-07T14:08:05;2.50;99.90
62904;DHT22;49000;50.698;13.322;2023-12-07T14:10:30;2.30;99.90
62904;DHT22;49000;50.698;13.322;2023-12-07T14:12:56;2.00;99.90
62904;DHT22;49000;50.698;13.322;2023-12-07T14:15:21;2.30;99.90
62904;DHT22;49000;50.698;13.322;2023-12-07T14:17:47;2.00;99.90
62904;DHT22;49000;50.698;13.322;2023-12-07T14:20:12;2.10;99.90
62904;DHT22;49000;50.698;13.322;2023-12-07T14:22:38;2.30;99.90
62904;DHT22;49000;50.698;13.322;2023-12-07T14:25:04;2.20;99.90
62904;DHT22;49000;50.698;13.322;2023-12-07T14:27:30;2.30;99.90
62904;DHT22;49000;50.698;13.322;2023-12-07T14:29:55;2.20;99.90
62904;DHT22;49000;50.698;13.322;2023-12-07T14:32:21;2.30;99.90
62904;DHT22;49000;50.698;13.322;2023-12-07T14:34:46;2.00;99.90
62904;DHT22;49000;50.698;13.322;2023-12-07T14:37:12;2.20;99.90
62904;DHT22;49000;50.698;13.322;2023-12-07T14:39:39;2.10;99.90
62904;DHT22;49000;50.698;13.322;2023-12-07T14:42:05;1.50;99.90
62904;DHT22;49000;50.698;13.322;2023-12-07T14:44:30;2.10;99.90
62904;DHT22;49000;50.698;13.322;2023-12-07T14:46:56;2.20;99.90
62904;DHT22;49000;50.698;13.322;2023-12-07T14:49:22;1.80;99.90
62904;DHT22;49000;50.698;13.322;2023-12-07T14:51:48;1.90;99.90
62904;DHT22;49000;50.698;13.322;2023-12-07T14:54:14;1.90;99.90
62904;DHT22;49000;50.698;13.322;2023-12-07T14:56:40;1.80;99.90
62904;DHT22;49000;50.698;13.322;2023-12-07T14:59:07;1.90;99.90
62904;DHT22;49000;50.698;13.322;2023-12-07T15:01:33;1.90;99.90
62904;DHT22;49000;50.698;13.322;2023-12-07T15:03:58;1.70;99.90
62904;DHT22;49000;50.698;13.322;2023-12-07T15:06:27;1.70;99.90
62904;DHT22;49000;50.698;13.322;2023-12-07T15:08:53;1.50;99.90
62904;DHT22;49000;50.698;13.322;2023-12-07T15:11:19;1.70;99.90
62904;DHT22;49000;50.698;13.322;2023-12-07T15:13:45;1.60;99.90
62904;DHT22;49000;50.698;13.322;2023-12-07T15:16:10;1.80;99.90
62904;DHT22;49000;50.698;13.322;2023-12-07T15:18:37;1.50;99.90
62904;DHT22;49000;50.698;13.322;2023-12-07T15:21:06;1.50;99.90
62904;DHT22;49000;50.698;13.322;2023-12-07T15:23:31;1.50;99.90
62904;DHT22;49000;50.698;13.322;2023-12-07T15:25:58;1.60;99.90
62904;DHT22;49000;50.698;13.322;2023-12-07T15:28:24;1.60;99.90
62904;DHT22;49000;50.698;13.322;2023-12-07T15:30:49;1.30;99.90
62904;DHT22;49000;50.698;13.322;2023-12-07T15:33:15;1.40;99.90
62904;DHT22;49000;50.698;13.322;2023-12-07T15:35:41;1.50;99.90